Terminal Aerodrome Forecast
Issued by NWS

Current Version | Previous Version | Text Only | Print | Product List | Glossary On
Versions: 1 2 3 4 5 6 7 8 9 10 11 12 13
000
FTUS44 KJAN 262342
TAFGTR
TAF
KGTR 262342Z 2700/2724 18009KT P6SM SCT040
     FM271100 20009KT P6SM SCT009 OVC015
     FM271600 22010KT P6SM BKN015 BKN025
     FM271800 22011KT P6SM SCT025 BKN035=

USA.gov is the U.S. government's official web portal to all federal, state and local government web resources and services.